Horario Temperatura Humedad Viento Lluvia Presión
Velocidad Ráfaga Dirección Recorrido
[ºC] [%] [km/h] [km/h] [km] [mm] [hPa]
00:00 18,4 66 7 23 Sudeste 1,2 0,0 1.014,9
00:10 18,0 66 9 27 Sudeste 1,5 0,0 1.015,1
00:20 17,8 65 6 17 Sudeste 0,9 0,0 1.015,2
00:30 17,7 65 7 26 Sudeste 1,2 0,0 1.015,2
00:40 17,5 65 6 21 Sudeste 1,0 0,0 1.015,4
00:50 17,3 64 11 28 Sudeste 1,7 0,0 1.015,7
01:00 16,8 58 10 31 Sudeste 1,6 0,0 1.015,8
01:10 16,6 55 11 27 Este 1,8 0,0 1.016,0
01:20 16,3 54 9 26 Sudeste 1,4 0,0 1.016,1
01:30 16,1 53 8 23 Este 1,3 0,0 1.015,9
01:40 15,9 52 8 22 Sudeste 1,2 0,0 1.016,0
01:50 15,8 51 5 14 Sudeste 0,9 0,0 1.016,0
Horario Temperatura Humedad Viento Lluvia Presión
Velocidad Ráfaga Dirección Recorrido
[ºC] [%] [km/h] [km/h] [km] [mm] [hPa]
02:00 15,7 50 5 17 Sudeste 0,8 0,0 1.016,1
02:10 15,6 49 5 14 Sudeste 0,8 0,0 1.016,0
02:20 15,5 48 6 16 Sudeste 1,0 0,0 1.016,0
02:30 15,5 47 6 16 Sudeste 0,9 0,0 1.016,1
02:40 15,4 48 3 12 Sur 0,5 0,0 1.016,2
02:50 15,2 48 3 10 Sudoeste 0,4 0,0 1.016,1
03:00 15,1 49 5 13 Sudeste 0,7 0,0 1.016,1
03:10 15,0 48 3 11 Sur 0,5 0,0 1.016,3
03:20 14,9 49 2 8 Calma 0,4 0,0 1.016,2
03:30 14,8 50 1 5 Calma 0,2 0,0 1.016,3
03:40 14,7 49 2 6 Calma 0,3 0,0 1.016,4
03:50 14,6 49 2 8 Calma 0,4 0,0 1.016,4
Horario Temperatura Humedad Viento Lluvia Presión
Velocidad Ráfaga Dirección Recorrido
[ºC] [%] [km/h] [km/h] [km] [mm] [hPa]
04:00 14,5 50 2 7 Calma 0,4 0,0 1.016,5
04:10 14,3 51 2 7 Calma 0,3 0,0 1.016,6
04:20 14,2 52 3 9 Sur 0,4 0,0 1.016,6
04:30 14,0 53 4 11 Sudeste 0,6 0,0 1.016,7
04:40 14,0 54 2 8 Calma 0,3 0,0 1.016,8
04:50 13,9 54 2 7 Calma 0,3 0,0 1.016,9
05:00 13,9 54 3 10 Sur 0,5 0,0 1.017,0
05:10 13,8 55 3 8 Calma 0,4 0,0 1.017,2
05:20 13,6 56 2 7 Calma 0,3 0,0 1.017,3
05:30 13,4 57 2 7 Calma 0,3 0,0 1.017,4
05:40 13,2 58 3 9 Sur 0,4 0,0 1.017,6
05:50 13,2 59 2 6 Calma 0,3 0,0 1.017,8
Horario Temperatura Humedad Viento Lluvia Presión
Velocidad Ráfaga Dirección Recorrido
[ºC] [%] [km/h] [km/h] [km] [mm] [hPa]
06:00 13,1 59 2 5 Calma 0,3 0,0 1.018,0
06:10 13,1 59 2 13 Sur 0,4 0,0 1.018,2
06:20 13,2 59 2 7 Calma 0,4 0,0 1.018,3
06:30 13,4 57 3 9 Sur 0,5 0,0 1.018,6
06:40 13,6 56 3 8 Calma 0,5 0,0 1.018,8
06:50 13,9 54 3 8 Calma 0,5 0,0 1.018,9
07:00 14,2 52 4 10 Sur 0,6 0,0 1.019,0
07:10 14,5 51 4 9 Sur 0,6 0,0 1.019,1
07:20 14,9 49 4 9 Sur 0,6 0,0 1.019,4
07:30 16,1 47 4 14 Sur 0,6 0,0 1.019,5
07:40 16,5 44 4 11 Sur 0,7 0,0 1.019,5
07:50 16,8 41 5 14 Sur 0,8 0,0 1.019,5
Horario Temperatura Humedad Viento Lluvia Presión
Velocidad Ráfaga Dirección Recorrido
[ºC] [%] [km/h] [km/h] [km] [mm] [hPa]
08:00 17,1 38 6 14 Sur 0,9 0,0 1.019,7
08:10 17,5 36 5 14 Sur 0,7 0,0 1.019,7
08:20 17,9 34 6 15 Sudeste 0,9 0,0 1.019,9
08:30 18,2 33 8 22 Sur 1,2 0,0 1.020,0
08:40 18,4 32 6 16 Sur 1,0 0,0 1.020,1
08:50 18,7 31 6 16 Sur 1,0 0,0 1.020,1
09:00 18,9 31 7 16 Sudeste 1,1 0,0 1.020,1
09:10 19,3 29 8 16 Sudeste 1,3 0,0 1.020,2
09:20 19,6 28 8 21 Sudeste 1,3 0,0 1.020,2
09:30 19,9 28 8 21 Sur 1,4 0,0 1.020,2
09:40 20,2 26 9 21 Sur 1,5 0,0 1.020,2
09:50 20,5 26 10 24 Sudeste 1,6 0,0 1.020,2
Horario Temperatura Humedad Viento Lluvia Presión
Velocidad Ráfaga Dirección Recorrido
[ºC] [%] [km/h] [km/h] [km] [mm] [hPa]
10:00 20,8 25 10 24 Sudeste 1,6 0,0 1.020,3
10:10 21,2 25 9 22 Sur 1,5 0,0 1.020,1
10:20 21,2 24 12 25 Sur 1,9 0,0 1.020,0
10:30 21,6 24 10 31 Sur 1,7 0,0 1.020,0
10:40 21,6 23 12 33 Sur 1,9 0,0 1.019,9
10:50 21,8 24 12 28 Sur 2,0 0,0 1.019,8
11:00 22,2 24 10 26 Sur 1,6 0,0 1.019,9
11:10 22,8 24 10 27 Sudeste 1,7 0,0 1.020,0
11:20 22,9 23 10 23 Sudeste 1,7 0,0 1.019,9
11:30 23,2 23 10 22 Sudeste 1,6 0,0 1.019,7
11:40 23,3 23 9 28 Sudeste 1,5 0,0 1.019,7
11:50 23,6 22 9 24 Sur 1,5 0,0 1.019,6
Horario Temperatura Humedad Viento Lluvia Presión
Velocidad Ráfaga Dirección Recorrido
[ºC] [%] [km/h] [km/h] [km] [mm] [hPa]
12:00 23,6 22 10 27 Sur 1,7 0,0 1.019,5
12:10 23,9 21 11 27 Sur 1,8 0,0 1.019,6
12:20 23,8 20 12 28 Sur 1,9 0,0 1.019,4
12:30 24,4 21 8 20 Sur 1,3 0,0 1.019,2
12:40 24,6 20 10 22 Sur 1,6 0,0 1.019,2
12:50 24,3 19 12 28 Sur 1,9 0,0 1.019,3
13:00 24,7 19 10 21 Sur 1,6 0,0 1.019,2
13:10 24,6 19 8 24 Sur 1,3 0,0 1.019,1
13:20 25,1 20 9 24 Sur 1,5 0,0 1.019,2
13:30 24,5 20 9 21 Sur 1,4 0,0 1.019,3
13:40 25,0 20 10 24 Sur 1,6 0,0 1.019,1
13:50 24,3 20 12 26 Sudeste 1,9 0,0 1.019,0
Horario Temperatura Humedad Viento Lluvia Presión
Velocidad Ráfaga Dirección Recorrido
[ºC] [%] [km/h] [km/h] [km] [mm] [hPa]
14:00 24,7 20 10 30 Sur 1,7 0,0 1.019,0
14:10 24,7 21 9 23 Sur 1,5 0,0 1.018,8
14:20 24,9 21 9 28 Sur 1,5 0,0 1.018,8
14:30 25,0 20 10 30 Sur 1,7 0,0 1.019,0
14:40 24,9 20 10 24 Sur 1,7 0,0 1.018,9
14:50 25,5 20 10 23 Sur 1,6 0,0 1.018,8
15:00 24,9 20 10 25 Sur 1,6 0,0 1.018,9
15:10 24,5 20 8 26 Sur 1,3 0,0 1.018,8
15:20 24,7 19 10 26 Sur 1,7 0,0 1.018,9
15:30 25,3 20 8 17 Sudoeste 1,3 0,0 1.018,7
15:40 25,6 19 11 28 Sur 1,7 0,0 1.018,7
15:50 25,2 19 8 22 Sur 1,4 0,0 1.018,7
Horario Temperatura Humedad Viento Lluvia Presión
Velocidad Ráfaga Dirección Recorrido
[ºC] [%] [km/h] [km/h] [km] [mm] [hPa]
16:00 24,8 19 8 17 Sudoeste 1,2 0,0 1.018,5
16:10 25,0 19 7 22 Sur 1,2 0,0 1.018,3
16:20 24,7 18 9 23 Sur 1,4 0,0 1.018,3
16:30 24,8 18 9 24 Sur 1,4 0,0 1.018,3
16:40 24,7 18 8 18 Sur 1,3 0,0 1.018,0
16:50 24,7 19 10 31 Sur 1,6 0,0 1.018,0
17:00 24,6 20 7 20 Sur 1,1 0,0 1.017,8
17:10 24,7 20 8 22 Sur 1,3 0,0 1.017,8
17:20 24,7 19 10 27 Sur 1,5 0,0 1.017,7
17:30 24,4 20 9 22 Sur 1,5 0,0 1.017,8
17:40 24,1 21 6 21 Sur 1,0 0,0 1.017,8
17:50 24,1 44 9 24 Sur 1,4 0,0 1.017,9
Horario Temperatura Humedad Viento Lluvia Presión
Velocidad Ráfaga Dirección Recorrido
[ºC] [%] [km/h] [km/h] [km] [mm] [hPa]
18:00 23,9 99 8 18 Sur 1,2 0,0 1.017,8
18:10 23,8 21 7 15 Sur 1,0 80,6 1.017,9
18:20 23,8 22 8 19 Sur 1,2 0,0 1.017,9
18:30 23,6 22 7 18 Sur 1,1 0,0 1.018,0
18:40 23,5 22 6 15 Sur 0,8 0,0 1.018,1
18:50 23,4 22 7 16 Sur 1,1 0,0 1.018,2
19:00 23,2 22 9 18 Sur 1,4 0,0 1.018,2
19:10 23,0 22 5 14 Sur 0,8 0,0 1.018,2
19:20 22,8 23 7 18 Sur 1,2 0,0 1.018,2
19:30 22,7 23 5 14 Sur 0,8 0,0 1.018,2
19:40 22,6 24 6 14 Sur 0,9 0,0 1.018,2
19:50 22,3 25 4 10 Sur 0,6 0,0 1.018,3
Horario Temperatura Humedad Viento Lluvia Presión
Velocidad Ráfaga Dirección Recorrido
[ºC] [%] [km/h] [km/h] [km] [mm] [hPa]
20:00 22,1 25 3 8 Calma 0,5 0,0 1.018,3
20:10 21,8 28 2 8 Calma 0,3 0,0 1.018,4
20:20 21,5 28 2 5 Calma 0,3 0,0 1.018,3
20:30 21,3 28 1 4 Calma 0,2 0,0 1.018,4
20:40 21,0 29 2 4 Calma 0,3 0,0 1.018,5
20:50 20,8 30 2 6 Calma 0,3 0,0 1.018,6
21:00 20,7 88 4 8 Calma 0,6 80,6 1.018,7
21:10 20,6 30 3 6 Calma 0,4 0,0 1.018,8
21:20 20,4 30 3 9 Sur 0,4 0,0 1.018,8
21:30 20,4 31 2 7 Calma 0,3 0,0 1.019,1
21:40 20,3 32 26 957 Sudoeste 3,8 0,0 1.019,3
21:50 20,3 31 4 11 Sur 0,7 0,0 1.019,4
Horario Temperatura Humedad Viento Lluvia Presión
Velocidad Ráfaga Dirección Recorrido
[ºC] [%] [km/h] [km/h] [km] [mm] [hPa]
22:00 20,2 32 6 15 Sudeste 1,0 0,0 1.019,5
22:10 19,9 33 4 9 Sur 0,6 0,0 1.019,8
22:20 19,5 35 3 9 Sudoeste 0,5 0,0 1.019,8
22:30 19,2 36 2 10 Sudoeste 0,3 0,0 1.019,8
22:40 19,0 38 2 7 Calma 0,2 0,0 1.019,8
22:50 18,7 41 2 8 Calma 0,3 0,0 1.019,8
23:00 18,6 43 1 5 Calma 0,2 0,0 1.019,8
23:10 18,5 45 2 7 Calma 0,3 0,0 1.019,8
23:20 18,3 46 2 10 Sudoeste 0,3 0,0 1.019,7
23:30 18,1 48 2 6 Calma 0,4 0,0 1.019,8
23:40 17,9 50 1 5 Calma 0,2 0,0 1.019,9
23:50 17,8 52 1 6 Calma 0,2 0,0 1.019,9